createdAt,value
2019-04-06T00:02:17.476Z,99.90
2019-04-06T00:04:46.041Z,99.90
2019-04-06T00:07:14.908Z,99.90
2019-04-06T00:09:43.590Z,99.90
2019-04-06T00:12:12.292Z,99.90
2019-04-06T00:14:41.031Z,99.90
2019-04-06T00:17:10.785Z,99.90
2019-04-06T00:19:39.491Z,99.90
2019-04-06T00:22:09.322Z,99.90
2019-04-06T00:24:38.022Z,99.90
2019-04-06T00:27:06.570Z,99.90
2019-04-06T00:29:35.125Z,99.90
2019-04-06T00:32:14.762Z,99.90
2019-04-06T00:34:44.383Z,99.90
2019-04-06T00:37:13.039Z,99.90
2019-04-06T00:39:41.539Z,99.90
2019-04-06T00:42:10.110Z,99.90
2019-04-06T00:44:38.647Z,99.90
2019-04-06T00:47:07.354Z,99.90
2019-04-06T00:49:36.149Z,99.90
2019-04-06T00:52:04.949Z,99.90
2019-04-06T00:54:33.660Z,99.90
2019-04-06T00:57:02.165Z,99.90
2019-04-06T00:59:30.971Z,99.90
2019-04-06T01:01:59.819Z,99.90
2019-04-06T01:04:28.502Z,99.90
2019-04-06T01:06:57.447Z,99.90
2019-04-06T01:09:26.056Z,99.90
2019-04-06T01:11:54.489Z,99.90
2019-04-06T01:14:23.186Z,99.90
2019-04-06T01:16:51.906Z,99.90
2019-04-06T01:19:20.774Z,99.90
2019-04-06T01:21:49.596Z,99.90
2019-04-06T01:24:18.276Z,99.90
2019-04-06T01:26:47.064Z,99.90
2019-04-06T01:29:15.567Z,99.90
2019-04-06T01:31:44.294Z,99.90
2019-04-06T01:34:12.978Z,99.90
2019-04-06T01:36:41.723Z,99.90
2019-04-06T01:39:10.410Z,99.90
2019-04-06T01:41:38.945Z,99.90
2019-04-06T01:44:07.523Z,99.90
2019-04-06T01:46:36.129Z,99.90
2019-04-06T01:49:04.533Z,99.90
2019-04-06T01:51:32.952Z,99.90
2019-04-06T01:54:01.574Z,99.90
2019-04-06T01:56:30.078Z,99.90
2019-04-06T01:58:58.619Z,99.90
2019-04-06T02:01:43.723Z,99.90
2019-04-06T02:04:12.249Z,99.90
2019-04-06T02:06:40.704Z,99.90
2019-04-06T02:09:09.339Z,99.90
2019-04-06T02:11:38.061Z,99.90
2019-04-06T02:14:06.826Z,99.90
2019-04-06T02:16:35.449Z,99.90
2019-04-06T02:19:04.186Z,99.90
2019-04-06T02:21:32.788Z,99.90
2019-04-06T02:24:01.533Z,99.90
2019-04-06T02:26:31.180Z,99.90
2019-04-06T02:29:00.181Z,99.90
2019-04-06T02:31:59.819Z,99.90
2019-04-06T02:34:50.745Z,99.90
2019-04-06T02:37:35.247Z,99.90
2019-04-06T02:40:26.079Z,99.90
2019-04-06T02:43:04.538Z,99.90
2019-04-06T02:45:33.175Z,99.90
2019-04-06T02:48:01.828Z,99.90
2019-04-06T02:50:30.545Z,99.90
2019-04-06T02:52:59.355Z,99.90
2019-04-06T02:55:28.259Z,99.90
2019-04-06T02:57:57.338Z,99.90
2019-04-06T03:00:26.060Z,99.90
2019-04-06T03:02:54.718Z,99.90
2019-04-06T03:05:23.576Z,99.90
2019-04-06T03:07:52.148Z,99.90
2019-04-06T03:10:20.767Z,99.90
2019-04-06T03:12:49.495Z,99.90
2019-04-06T03:15:18.159Z,99.90
2019-04-06T03:17:46.718Z,99.90
2019-04-06T03:20:15.472Z,99.90
2019-04-06T03:22:44.152Z,99.90
2019-04-06T03:25:13.069Z,99.90
2019-04-06T03:27:41.814Z,99.90
2019-04-06T03:30:10.679Z,99.90
2019-04-06T03:32:39.497Z,99.90
2019-04-06T03:35:08.377Z,99.90
2019-04-06T03:37:37.305Z,99.90
2019-04-06T03:40:06.817Z,99.90
2019-04-06T03:42:35.606Z,99.90
2019-04-06T03:45:04.954Z,99.90
2019-04-06T03:47:33.631Z,99.90
2019-04-06T03:50:02.394Z,99.90
2019-04-06T03:52:30.910Z,99.90
2019-04-06T03:54:59.539Z,99.90
2019-04-06T03:57:28.356Z,99.90
2019-04-06T03:59:57.223Z,99.90
2019-04-06T04:02:26.133Z,99.90
2019-04-06T04:04:55.040Z,99.90
2019-04-06T04:07:23.828Z,99.90
2019-04-06T04:09:52.449Z,99.90
2019-04-06T04:12:20.948Z,99.90
2019-04-06T04:18:21.660Z,99.90
2019-04-06T04:20:50.264Z,99.90
2019-04-06T04:23:18.914Z,99.90
2019-04-06T04:25:47.430Z,99.90
2019-04-06T04:28:16.110Z,99.90
2019-04-06T04:30:44.737Z,99.90
2019-04-06T04:33:13.405Z,99.90
2019-04-06T04:35:41.895Z,99.90
2019-04-06T04:38:10.613Z,99.90
2019-04-06T04:40:39.397Z,99.90
2019-04-06T04:43:07.880Z,99.90
2019-04-06T04:45:36.545Z,99.90
2019-04-06T04:48:05.350Z,99.90
2019-04-06T04:50:33.934Z,99.90
2019-04-06T04:53:02.471Z,99.90
2019-04-06T04:55:31.224Z,99.90
2019-04-06T04:57:59.825Z,99.90
2019-04-06T05:00:28.341Z,99.90
2019-04-06T05:02:57.104Z,99.90
2019-04-06T05:05:25.729Z,99.90
2019-04-06T05:07:54.303Z,99.90
2019-04-06T05:10:28.147Z,99.90
2019-04-06T05:12:58.063Z,99.90
2019-04-06T05:15:53.621Z,99.90
2019-04-06T05:18:22.221Z,99.90
2019-04-06T05:20:52.514Z,99.90
2019-04-06T05:23:22.882Z,99.90
2019-04-06T05:25:52.333Z,99.90
2019-04-06T05:28:21.915Z,99.90
2019-04-06T05:30:50.906Z,99.90
2019-04-06T05:33:19.613Z,99.90
2019-04-06T05:35:48.275Z,99.90
2019-04-06T05:38:16.819Z,99.90
2019-04-06T05:40:46.369Z,99.90
2019-04-06T05:43:15.136Z,99.90
2019-04-06T05:45:43.796Z,99.90
2019-04-06T05:48:12.454Z,99.90
2019-04-06T05:50:41.155Z,99.90
2019-04-06T05:53:10.190Z,99.90
2019-04-06T05:55:38.798Z,99.90
2019-04-06T05:58:10.698Z,99.90
2019-04-06T06:00:40.607Z,99.90
2019-04-06T06:03:10.786Z,99.90
2019-04-06T06:05:41.080Z,99.90
2019-04-06T06:08:12.496Z,99.90
2019-04-06T06:10:41.633Z,99.90
2019-04-06T06:13:10.308Z,99.90
2019-04-06T06:15:39.063Z,99.90
2019-04-06T06:18:10.030Z,99.90
2019-04-06T06:20:39.156Z,99.90
2019-04-06T06:23:08.332Z,99.90
2019-04-06T06:25:37.302Z,99.90
2019-04-06T06:28:14.213Z,99.90
2019-04-06T06:30:36.551Z,99.90
2019-04-06T06:33:05.322Z,99.90
2019-04-06T06:35:33.922Z,99.90
2019-04-06T06:38:02.673Z,99.90
2019-04-06T06:40:31.594Z,99.90
2019-04-06T06:43:00.038Z,99.90
2019-04-06T06:45:28.847Z,99.90
2019-04-06T06:47:57.456Z,99.90
2019-04-06T06:50:26.157Z,99.90
2019-04-06T06:52:55.025Z,99.90
2019-04-06T06:55:23.920Z,99.90
2019-04-06T06:57:52.363Z,99.90
2019-04-06T07:00:21.239Z,99.90
2019-04-06T07:02:49.955Z,99.90
2019-04-06T07:05:18.857Z,99.90
2019-04-06T07:07:47.519Z,99.90
2019-04-06T07:10:16.327Z,99.90
2019-04-06T07:12:44.832Z,99.90
2019-04-06T07:15:13.683Z,99.90
2019-04-06T07:17:42.193Z,99.90
2019-04-06T07:20:11.120Z,99.90
2019-04-06T07:22:39.760Z,99.90
2019-04-06T07:25:08.531Z,99.90
2019-04-06T07:27:37.238Z,99.90
2019-04-06T07:30:06.683Z,99.90
2019-04-06T07:32:35.305Z,99.90
2019-04-06T07:35:04.145Z,99.90
2019-04-06T07:37:32.875Z,99.90
2019-04-06T07:40:01.670Z,99.90
2019-04-06T07:42:30.364Z,99.90
2019-04-06T07:44:59.011Z,99.90
2019-04-06T07:47:27.743Z,99.90
2019-04-06T07:49:56.513Z,99.90
2019-04-06T07:52:25.159Z,99.90
2019-04-06T07:54:53.679Z,99.90
2019-04-06T07:57:22.230Z,99.90
2019-04-06T07:59:50.751Z,99.90
2019-04-06T08:02:19.536Z,99.90
2019-04-06T08:04:48.192Z,99.90
2019-04-06T08:07:16.773Z,99.90
2019-04-06T08:09:45.527Z,99.90
2019-04-06T08:12:14.212Z,99.90
2019-04-06T08:14:42.854Z,99.90
2019-04-06T08:17:11.494Z,99.90
2019-04-06T08:19:39.968Z,99.90
2019-04-06T08:22:08.584Z,99.90
2019-04-06T08:26:19.993Z,99.90
2019-04-06T08:29:00.723Z,99.90
2019-04-06T08:31:26.350Z,99.90
2019-04-06T08:33:56.322Z,99.90
2019-04-06T08:36:25.170Z,99.90
2019-04-06T08:38:54.147Z,99.90
2019-04-06T08:41:23.076Z,99.90
2019-04-06T08:43:51.864Z,99.90
2019-04-06T08:46:20.434Z,99.90
2019-04-06T08:48:49.368Z,99.90
2019-04-06T08:51:17.990Z,99.90
2019-04-06T08:53:46.579Z,99.90
2019-04-06T08:56:15.520Z,99.90
2019-04-06T08:58:44.157Z,99.90
2019-04-06T09:01:12.822Z,99.90
2019-04-06T09:03:42.487Z,99.90
2019-04-06T09:06:11.279Z,99.90
2019-04-06T09:08:40.112Z,99.90
2019-04-06T09:11:08.920Z,99.90
2019-04-06T09:13:39.895Z,99.90
2019-04-06T09:16:08.041Z,99.90
2019-04-06T09:18:36.652Z,99.90
2019-04-06T09:21:05.557Z,99.90
2019-04-06T09:23:34.147Z,99.90
2019-04-06T09:26:02.861Z,99.90
2019-04-06T09:28:31.846Z,99.90
2019-04-06T09:31:00.905Z,99.90
2019-04-06T09:33:29.775Z,99.90
2019-04-06T09:35:58.572Z,99.90
2019-04-06T09:38:27.473Z,99.90
2019-04-06T09:40:56.383Z,99.90
2019-04-06T09:43:24.928Z,99.90
2019-04-06T09:46:12.954Z,99.90
2019-04-06T09:48:48.747Z,99.90
2019-04-06T09:51:31.473Z,99.90
2019-04-06T09:54:22.244Z,99.90
2019-04-06T09:57:08.946Z,99.90
2019-04-06T10:00:08.574Z,99.90
2019-04-06T10:02:55.622Z,99.90
2019-04-06T10:05:43.135Z,99.90
2019-04-06T10:08:29.781Z,99.90
2019-04-06T10:11:18.052Z,99.90
2019-04-06T10:13:59.654Z,99.90
2019-04-06T10:16:47.559Z,99.90
2019-04-06T10:19:38.235Z,99.90
2019-04-06T10:22:12.945Z,99.90
2019-04-06T10:25:16.421Z,99.90
2019-04-06T10:28:04.906Z,99.90
2019-04-06T10:30:56.107Z,99.90
2019-04-06T10:33:43.128Z,99.90
2019-04-06T10:36:17.340Z,99.90
2019-04-06T10:39:03.521Z,99.90
2019-04-06T10:41:53.057Z,99.90
2019-04-06T10:44:59.648Z,99.90
2019-04-06T10:47:46.612Z,99.90
2019-04-06T10:50:24.914Z,99.90
2019-04-06T10:53:22.176Z,99.90
2019-04-06T10:56:03.809Z,99.90
2019-04-06T10:58:54.778Z,99.90
2019-04-06T11:01:48.693Z,99.90
2019-04-06T11:04:39.564Z,99.90
2019-04-06T11:07:36.239Z,99.90
2019-04-06T11:10:41.600Z,99.90
2019-04-06T11:13:32.411Z,99.90
2019-04-06T11:16:20.495Z,99.90
2019-04-06T11:19:02.680Z,99.90
2019-04-06T11:21:45.736Z,99.90
2019-04-06T11:24:29.055Z,99.90
2019-04-06T11:27:05.895Z,99.90
2019-04-06T11:30:14.673Z,99.90
2019-04-06T11:33:10.752Z,99.90
2019-04-06T11:35:58.765Z,99.90
2019-04-06T11:38:42.639Z,99.90
2019-04-06T11:41:42.869Z,99.90
2019-04-06T11:44:29.910Z,99.90
2019-04-06T11:47:25.641Z,99.90
2019-04-06T11:50:16.673Z,99.90
2019-04-06T11:52:57.837Z,99.90
2019-04-06T11:55:41.332Z,99.90
2019-04-06T11:58:26.242Z,99.90
2019-04-06T12:01:12.907Z,99.90
2019-04-06T12:04:02.821Z,99.90
2019-04-06T12:06:51.763Z,99.90
2019-04-06T12:09:44.422Z,99.90
2019-04-06T12:12:48.311Z,99.90
2019-04-06T12:15:42.576Z,99.90
2019-04-06T12:18:19.923Z,99.90
2019-04-06T12:21:14.383Z,99.90
2019-04-06T12:24:14.937Z,99.90
2019-04-06T12:27:22.178Z,99.90
2019-04-06T12:30:09.839Z,99.90
2019-04-06T12:33:07.482Z,99.90
2019-04-06T12:35:56.757Z,99.90
2019-04-06T12:38:44.894Z,99.90
2019-04-06T12:41:39.388Z,99.90
2019-04-06T12:44:33.699Z,99.90
2019-04-06T12:47:15.482Z,99.90
2019-04-06T12:50:03.852Z,99.90
2019-04-06T12:52:51.012Z,99.90
2019-04-06T12:55:41.566Z,99.90
2019-04-06T12:58:48.039Z,99.90
2019-04-06T13:01:26.546Z,99.90
2019-04-06T13:04:18.137Z,99.90
2019-04-06T13:07:16.625Z,99.90
2019-04-06T13:10:05.153Z,99.90
2019-04-06T13:12:59.629Z,99.90
2019-04-06T13:15:48.218Z,99.90
2019-04-06T13:18:45.727Z,99.90
2019-04-06T13:21:34.563Z,99.90
2019-04-06T13:24:16.742Z,99.90
2019-04-06T13:26:58.837Z,99.90
2019-04-06T13:29:50.468Z,99.90
2019-04-06T13:32:42.533Z,99.90
2019-04-06T13:35:33.974Z,99.90
2019-04-06T13:38:29.106Z,99.90
2019-04-06T13:41:20.378Z,99.90
2019-04-06T13:44:26.046Z,99.90
2019-04-06T13:47:12.751Z,99.90
2019-04-06T13:49:56.537Z,99.90
2019-04-06T13:52:56.773Z,99.90
2019-04-06T13:55:57.406Z,99.90
2019-04-06T13:58:46.487Z,99.90
2019-04-06T14:01:38.415Z,99.90
2019-04-06T14:04:30.608Z,99.90
2019-04-06T14:07:25.001Z,99.90
2019-04-06T14:10:19.009Z,99.70
2019-04-06T14:13:19.032Z,99.20
2019-04-06T14:16:05.760Z,99.00
2019-04-06T14:18:54.434Z,99.90
2019-04-06T14:21:42.107Z,99.80
2019-04-06T14:24:48.250Z,99.90
2019-04-06T14:27:34.851Z,99.90
2019-04-06T14:30:20.234Z,99.90
2019-04-06T14:33:14.067Z,99.90
2019-04-06T14:35:56.939Z,99.90
2019-04-06T14:39:00.286Z,99.90
2019-04-06T14:41:52.043Z,99.90
2019-04-06T14:44:35.407Z,99.90
2019-04-06T14:47:28.144Z,99.90
2019-04-06T14:50:18.979Z,99.90
2019-04-06T14:52:56.080Z,99.90
2019-04-06T14:55:34.309Z,99.90
2019-04-06T14:58:16.007Z,99.90
2019-04-06T15:01:02.997Z,99.90
2019-04-06T15:03:51.138Z,99.90
2019-04-06T15:06:45.175Z,99.90
2019-04-06T15:09:26.942Z,99.90
2019-04-06T15:12:17.846Z,99.90
2019-04-06T15:15:10.999Z,99.50
2019-04-06T15:18:01.805Z,99.90
2019-04-06T15:20:48.607Z,99.90
2019-04-06T15:23:32.484Z,99.80
2019-04-06T15:31:20.140Z,99.70
2019-04-06T15:33:56.286Z,98.20
2019-04-06T15:36:36.124Z,97.40
2019-04-06T15:39:26.450Z,97.90
2019-04-06T15:42:23.105Z,98.00
2019-04-06T15:49:10.602Z,99.50
2019-04-06T15:52:43.837Z,99.70
2019-04-06T15:55:46.887Z,99.80
2019-04-06T15:58:32.918Z,99.90
2019-04-06T16:01:19.669Z,99.80
2019-04-06T16:04:07.682Z,99.80
2019-04-06T16:06:51.912Z,99.90
2019-04-06T16:09:44.076Z,99.90
2019-04-06T16:12:34.939Z,99.90
2019-04-06T16:15:15.200Z,99.90
2019-04-06T16:18:08.757Z,99.90
2019-04-06T16:20:44.110Z,99.90
2019-04-06T16:23:38.065Z,99.90
2019-04-06T16:26:14.038Z,99.90
2019-04-06T16:28:57.568Z,99.90
2019-04-06T16:31:45.631Z,99.90
2019-04-06T16:34:42.672Z,99.90
2019-04-06T16:37:21.103Z,99.90
2019-04-06T16:40:13.191Z,99.90
2019-04-06T16:42:52.738Z,99.90
2019-04-06T16:45:35.235Z,99.90
2019-04-06T16:48:20.728Z,99.90
2019-04-06T16:51:12.054Z,99.90
2019-04-06T16:53:59.911Z,99.90
2019-04-06T16:57:01.054Z,99.90
2019-04-06T16:59:46.547Z,99.90
2019-04-06T17:02:32.937Z,99.90
2019-04-06T17:05:13.610Z,99.90
2019-04-06T17:07:57.158Z,99.90
2019-04-06T17:10:51.165Z,99.90
2019-04-06T17:13:46.861Z,99.90
2019-04-06T17:16:35.578Z,99.90
2019-04-06T17:19:32.560Z,99.90
2019-04-06T17:22:23.619Z,99.90
2019-04-06T17:25:07.821Z,99.90
2019-04-06T17:28:04.701Z,99.90
2019-04-06T17:30:49.586Z,99.90
2019-04-06T17:33:36.761Z,99.90
2019-04-06T17:36:27.781Z,99.90
2019-04-06T17:39:18.708Z,99.90
2019-04-06T17:42:15.705Z,99.90
2019-04-06T17:44:52.090Z,99.90
2019-04-06T17:47:38.444Z,99.90
2019-04-06T17:50:33.234Z,99.90
2019-04-06T17:53:13.551Z,99.90
2019-04-06T17:56:10.107Z,99.90
2019-04-06T17:58:49.947Z,99.90
2019-04-06T18:01:35.583Z,99.90
2019-04-06T18:04:29.754Z,99.90
2019-04-06T18:07:34.721Z,99.90
2019-04-06T18:10:11.477Z,99.90
2019-04-06T18:13:09.338Z,99.90
2019-04-06T18:15:38.061Z,99.90
2019-04-06T18:18:07.739Z,99.90
2019-04-06T18:20:40.383Z,99.90
2019-04-06T18:23:10.538Z,99.90
2019-04-06T18:25:40.541Z,99.90
2019-04-06T18:28:09.423Z,99.90
2019-04-06T18:30:38.410Z,99.90
2019-04-06T18:33:13.880Z,99.90
2019-04-06T18:35:42.828Z,99.90
2019-04-06T18:38:22.351Z,99.90
2019-04-06T18:40:50.778Z,99.90
2019-04-06T18:43:19.673Z,99.90
2019-04-06T18:45:48.866Z,99.90
2019-04-06T18:48:18.088Z,99.90
2019-04-06T18:50:47.345Z,99.90
2019-04-06T18:53:16.091Z,99.90
2019-04-06T18:55:44.896Z,99.90
2019-04-06T18:58:13.762Z,99.90
2019-04-06T19:00:43.516Z,99.90
2019-04-06T19:03:15.831Z,99.90
2019-04-06T19:05:43.452Z,99.90
2019-04-06T19:08:12.386Z,99.90
2019-04-06T19:10:41.070Z,99.90
2019-04-06T19:13:10.246Z,99.90
2019-04-06T19:15:39.228Z,99.90
2019-04-06T19:18:07.894Z,99.90
2019-04-06T19:20:36.560Z,99.90
2019-04-06T19:23:05.496Z,99.90
2019-04-06T19:25:34.142Z,99.90
2019-04-06T19:28:02.797Z,99.90
2019-04-06T19:30:31.682Z,99.90
2019-04-06T19:33:00.119Z,99.90
2019-04-06T19:35:28.566Z,99.90
2019-04-06T19:37:57.295Z,99.90
2019-04-06T19:40:25.865Z,99.90
2019-04-06T19:42:54.378Z,99.90
2019-04-06T19:45:23.348Z,99.90
2019-04-06T19:47:53.040Z,99.90
2019-04-06T19:50:22.215Z,99.90
2019-04-06T19:52:50.868Z,99.90
2019-04-06T19:55:20.294Z,99.90
2019-04-06T19:57:49.451Z,99.90
2019-04-06T20:00:18.903Z,99.90
2019-04-06T20:02:47.607Z,99.90
2019-04-06T20:05:16.145Z,99.90
2019-04-06T20:07:44.782Z,99.90
2019-04-06T20:10:13.901Z,99.90
2019-04-06T20:12:42.722Z,99.90
2019-04-06T20:15:12.151Z,99.90
2019-04-06T20:17:40.724Z,99.90
2019-04-06T20:20:09.665Z,99.90
2019-04-06T20:22:38.405Z,99.90
2019-04-06T20:25:07.234Z,99.90
2019-04-06T20:27:37.164Z,99.90
2019-04-06T20:30:06.846Z,99.90
2019-04-06T20:32:35.625Z,99.90
2019-04-06T20:35:05.491Z,99.90
2019-04-06T20:37:34.230Z,99.90
2019-04-06T20:40:03.206Z,99.90
2019-04-06T20:42:31.759Z,99.90
2019-04-06T20:45:00.389Z,99.90
2019-04-06T20:47:29.011Z,99.90
2019-04-06T20:49:58.118Z,99.90
2019-04-06T20:52:26.867Z,99.90
2019-04-06T20:54:55.936Z,99.90
2019-04-06T20:57:25.657Z,99.90
2019-04-06T20:59:55.005Z,99.90
2019-04-06T21:02:23.767Z,99.90
2019-04-06T21:04:52.428Z,99.90
2019-04-06T21:07:21.605Z,99.90
2019-04-06T21:09:50.192Z,99.90
2019-04-06T21:12:19.224Z,99.90
2019-04-06T21:14:48.080Z,99.90
2019-04-06T21:17:17.408Z,99.90
2019-04-06T21:19:46.036Z,99.90
2019-04-06T21:22:14.583Z,99.90
2019-04-06T21:24:44.078Z,99.90
2019-04-06T21:27:12.649Z,99.90
2019-04-06T21:29:41.305Z,99.90
2019-04-06T21:32:09.784Z,99.90
2019-04-06T21:34:38.326Z,99.90
2019-04-06T21:37:07.030Z,99.90
2019-04-06T21:39:35.946Z,99.90
2019-04-06T21:42:04.514Z,99.90
2019-04-06T21:44:33.318Z,99.90
2019-04-06T21:47:02.533Z,99.90
2019-04-06T21:49:31.277Z,99.90
2019-04-06T21:52:00.006Z,99.90
2019-04-06T21:54:28.546Z,99.90
2019-04-06T21:56:57.182Z,99.90
2019-04-06T21:59:25.813Z,99.90
2019-04-06T22:01:55.054Z,99.90
2019-04-06T22:04:26.702Z,99.90
2019-04-06T22:06:55.552Z,99.90
2019-04-06T22:09:25.379Z,99.90
2019-04-06T22:11:54.696Z,99.90
2019-04-06T22:14:23.876Z,99.90
2019-04-06T22:16:52.631Z,99.90
2019-04-06T22:19:21.430Z,99.90
2019-04-06T22:21:51.292Z,99.90
2019-04-06T22:24:20.435Z,99.90
2019-04-06T22:26:49.649Z,99.90
2019-04-06T22:29:18.517Z,99.90
2019-04-06T22:31:47.161Z,99.90
2019-04-06T22:34:17.277Z,99.90
2019-04-06T22:36:46.066Z,99.90
2019-04-06T22:39:14.786Z,99.90
2019-04-06T22:41:43.431Z,99.90
2019-04-06T22:44:12.069Z,99.90
2019-04-06T22:46:40.776Z,99.90
2019-04-06T22:49:09.619Z,99.90
2019-04-06T22:51:38.177Z,99.90
2019-04-06T22:54:06.966Z,99.90
2019-04-06T22:56:35.462Z,99.90
2019-04-06T22:59:04.155Z,99.90
2019-04-06T23:01:34.611Z,99.90
2019-04-06T23:04:25.250Z,99.90
2019-04-06T23:07:05.966Z,99.90
2019-04-06T23:09:34.718Z,99.90
2019-04-06T23:12:03.488Z,99.90
2019-04-06T23:14:32.809Z,99.90
2019-04-06T23:17:02.196Z,99.90
2019-04-06T23:19:32.780Z,99.90
2019-04-06T23:22:01.326Z,99.90
2019-04-06T23:24:29.972Z,99.90
2019-04-06T23:26:59.058Z,99.90
2019-04-06T23:29:28.019Z,99.90
2019-04-06T23:31:56.672Z,99.90
2019-04-06T23:34:25.822Z,99.90
2019-04-06T23:36:54.568Z,99.90
2019-04-06T23:39:24.336Z,99.90
2019-04-06T23:41:53.134Z,99.90
2019-04-06T23:44:21.706Z,99.90
2019-04-06T23:46:50.994Z,99.90
2019-04-06T23:49:19.643Z,99.90
2019-04-06T23:51:48.258Z,99.90
2019-04-06T23:54:16.802Z,99.90
2019-04-06T23:56:45.362Z,99.90
2019-04-06T23:59:14.327Z,99.90
